createdAt,value
2023-05-14T00:01:53.527Z,15.18
2023-05-14T00:04:21.557Z,14.98
2023-05-14T00:06:49.532Z,14.90
2023-05-14T00:09:17.448Z,14.90
2023-05-14T00:11:46.764Z,14.90
2023-05-14T00:14:14.672Z,14.92
2023-05-14T00:16:42.595Z,14.76
2023-05-14T00:19:10.666Z,14.70
2023-05-14T00:21:38.799Z,14.60
2023-05-14T00:24:07.045Z,14.46
2023-05-14T00:26:35.015Z,14.41
2023-05-14T00:29:04.385Z,14.50
2023-05-14T00:31:32.347Z,14.50
2023-05-14T00:34:00.280Z,14.53
2023-05-14T00:36:28.220Z,14.58
2023-05-14T00:38:56.154Z,14.65
2023-05-14T00:41:24.209Z,14.68
2023-05-14T00:43:52.143Z,14.57
2023-05-14T00:46:21.479Z,14.36
2023-05-14T00:48:49.516Z,14.33
2023-05-14T00:51:17.526Z,14.35
2023-05-14T00:53:45.432Z,14.25
2023-05-14T00:56:13.465Z,14.11
2023-05-14T00:58:41.544Z,13.89
2023-05-14T01:01:09.967Z,13.84
2023-05-14T01:03:39.705Z,13.83
2023-05-14T01:06:12.748Z,13.94
2023-05-14T01:08:48.612Z,13.84
2023-05-14T01:11:19.522Z,13.72
2023-05-14T01:13:52.292Z,13.57
2023-05-14T01:16:21.081Z,13.56
2023-05-14T01:18:52.634Z,13.56
2023-05-14T01:21:35.235Z,13.86
2023-05-14T01:24:03.208Z,13.97
2023-05-14T01:26:31.573Z,14.14
2023-05-14T01:29:05.616Z,13.85
2023-05-14T01:31:35.189Z,12.17
2023-05-14T01:34:04.086Z,10.93
2023-05-14T01:36:34.079Z,10.46
2023-05-14T01:39:02.890Z,10.81
2023-05-14T01:41:31.079Z,11.93
2023-05-14T01:43:59.205Z,12.85
2023-05-14T01:46:27.127Z,13.29
2023-05-14T01:48:55.109Z,12.37
2023-05-14T01:51:23.001Z,11.35
2023-05-14T01:53:52.281Z,11.52
2023-05-14T01:56:21.773Z,12.82
2023-05-14T01:58:49.705Z,13.14
2023-05-14T02:01:18.037Z,13.16
2023-05-14T02:03:46.039Z,13.42
2023-05-14T02:06:14.015Z,12.99
2023-05-14T02:08:41.983Z,12.97
2023-05-14T02:11:11.308Z,13.08
2023-05-14T02:13:39.210Z,13.01
2023-05-14T02:16:07.765Z,13.10
2023-05-14T02:18:35.750Z,12.84
2023-05-14T02:21:03.664Z,12.94
2023-05-14T02:23:41.134Z,12.73
2023-05-14T02:26:12.340Z,12.58
2023-05-14T02:28:40.295Z,12.63
2023-05-14T02:31:08.285Z,12.57
2023-05-14T02:33:36.334Z,12.68
2023-05-14T02:36:04.530Z,12.73
2023-05-14T02:38:32.424Z,11.51
2023-05-14T02:41:00.306Z,10.40
2023-05-14T02:43:29.775Z,10.24
2023-05-14T02:45:57.660Z,10.51
2023-05-14T02:48:26.184Z,11.10
2023-05-14T02:50:54.101Z,11.82
2023-05-14T02:53:21.999Z,12.10
2023-05-14T02:55:49.945Z,12.16
2023-05-14T02:58:17.837Z,12.01
2023-05-14T03:00:48.384Z,11.56
2023-05-14T03:03:17.048Z,11.40
2023-05-14T03:05:45.305Z,11.06
2023-05-14T03:08:13.207Z,11.42
2023-05-14T03:10:41.107Z,11.96
2023-05-14T03:13:09.018Z,12.32
2023-05-14T03:15:36.970Z,12.47
2023-05-14T03:18:06.777Z,12.40
2023-05-14T03:20:34.730Z,12.34
2023-05-14T03:23:02.744Z,12.15
2023-05-14T03:25:30.645Z,12.32
2023-05-14T03:27:58.597Z,12.37
2023-05-14T03:30:26.791Z,12.40
2023-05-14T03:32:54.941Z,12.40
2023-05-14T03:35:24.321Z,12.46
2023-05-14T03:37:53.061Z,12.48
2023-05-14T03:40:21.628Z,12.11
2023-05-14T03:42:49.761Z,12.19
2023-05-14T03:45:17.689Z,12.29
2023-05-14T03:47:45.727Z,11.56
2023-05-14T03:50:13.880Z,11.85
2023-05-14T03:52:43.626Z,12.11
2023-05-14T03:55:11.701Z,12.10
2023-05-14T03:57:39.623Z,12.06
2023-05-14T04:00:08.757Z,12.12
2023-05-14T04:02:36.733Z,12.15
2023-05-14T04:05:05.392Z,12.12
2023-05-14T04:07:33.283Z,11.48
2023-05-14T04:10:04.522Z,11.60
2023-05-14T04:12:32.755Z,11.42
2023-05-14T04:15:00.688Z,11.47
2023-05-14T04:17:28.617Z,11.14
2023-05-14T04:19:56.564Z,11.17
2023-05-14T04:22:24.457Z,11.37
2023-05-14T04:24:53.226Z,11.70
2023-05-14T04:27:22.617Z,12.09
2023-05-14T04:29:50.825Z,12.30
2023-05-14T04:32:18.799Z,12.40
2023-05-14T04:34:46.931Z,12.37
2023-05-14T04:37:14.929Z,12.52
2023-05-14T04:39:43.616Z,12.67
2023-05-14T04:42:11.574Z,12.48
2023-05-14T04:44:40.853Z,12.10
2023-05-14T04:47:08.751Z,12.23
2023-05-14T04:49:36.661Z,12.53
2023-05-14T04:52:04.668Z,12.61
2023-05-14T04:54:32.753Z,12.51
2023-05-14T04:57:03.249Z,12.55
2023-05-14T04:59:31.327Z,12.57
2023-05-14T05:02:00.740Z,12.61
2023-05-14T05:04:29.092Z,12.75
2023-05-14T05:06:56.992Z,12.77
2023-05-14T05:09:24.893Z,12.84
2023-05-14T05:11:52.779Z,12.93
2023-05-14T05:14:20.700Z,13.00
2023-05-14T05:16:48.580Z,13.01
2023-05-14T05:19:17.988Z,13.11
2023-05-14T05:21:46.240Z,13.22
2023-05-14T05:24:14.173Z,13.20
2023-05-14T05:26:42.123Z,13.38
2023-05-14T05:29:10.026Z,13.51
2023-05-14T05:31:38.136Z,13.61
2023-05-14T05:34:06.086Z,13.75
2023-05-14T05:36:35.687Z,13.92
2023-05-14T05:39:03.587Z,14.08
2023-05-14T05:41:31.500Z,14.22
2023-05-14T05:43:59.368Z,14.41
2023-05-14T05:46:27.272Z,14.58
2023-05-14T05:48:55.179Z,14.70
2023-05-14T05:51:23.156Z,14.83
2023-05-14T05:53:52.505Z,14.93
2023-05-14T05:56:21.194Z,15.07
2023-05-14T05:58:49.357Z,15.15
2023-05-14T06:01:17.248Z,15.24
2023-05-14T06:03:47.656Z,15.28
2023-05-14T06:06:16.631Z,15.40
2023-05-14T06:08:44.516Z,15.49
2023-05-14T06:11:13.843Z,15.62
2023-05-14T06:13:41.710Z,15.78
2023-05-14T06:16:10.080Z,15.90
2023-05-14T06:18:38.084Z,15.85
2023-05-14T06:21:06.082Z,15.97
2023-05-14T06:23:34.208Z,16.00
2023-05-14T06:26:02.114Z,16.19
2023-05-14T06:28:31.409Z,16.25
2023-05-14T06:30:59.322Z,16.46
2023-05-14T06:33:30.912Z,16.68
2023-05-14T06:35:59.744Z,16.81
2023-05-14T06:38:27.666Z,16.88
2023-05-14T06:40:55.657Z,17.03
2023-05-14T06:43:23.549Z,17.25
2023-05-14T06:45:53.178Z,17.41
2023-05-14T06:48:21.706Z,17.19
2023-05-14T06:50:50.307Z,17.22
2023-05-14T06:53:18.221Z,17.29
2023-05-14T06:55:46.149Z,17.57
2023-05-14T06:58:14.116Z,17.76
2023-05-14T07:00:42.081Z,17.88
2023-05-14T07:03:11.462Z,17.60
2023-05-14T07:05:40.868Z,17.73
2023-05-14T07:08:08.885Z,17.75
2023-05-14T07:10:36.874Z,18.12
2023-05-14T07:13:04.839Z,18.30
2023-05-14T07:15:32.791Z,18.39
2023-05-14T07:18:00.722Z,18.28
2023-05-14T07:20:30.188Z,18.49
2023-05-14T07:22:58.107Z,18.87
2023-05-14T07:25:26.000Z,19.02
2023-05-14T07:27:53.974Z,19.11
2023-05-14T07:30:22.429Z,19.26
2023-05-14T07:32:50.582Z,19.25
2023-05-14T07:35:18.780Z,19.32
2023-05-14T07:37:48.186Z,19.45
2023-05-14T07:40:16.385Z,19.46
2023-05-14T07:42:44.294Z,19.22
2023-05-14T07:45:12.682Z,19.46
2023-05-14T07:47:40.889Z,19.58
2023-05-14T07:50:09.781Z,19.40
2023-05-14T07:52:37.695Z,19.64
2023-05-14T07:55:08.487Z,19.81
2023-05-14T07:57:36.522Z,19.90
2023-05-14T08:00:04.886Z,20.04
2023-05-14T08:02:32.842Z,20.17
2023-05-14T08:05:00.886Z,20.19
2023-05-14T08:07:30.146Z,20.24
2023-05-14T08:09:58.235Z,19.99
2023-05-14T08:12:28.800Z,20.15
2023-05-14T08:14:56.837Z,20.35
2023-05-14T08:17:24.776Z,20.16
2023-05-14T08:19:52.738Z,20.08
2023-05-14T08:22:20.636Z,19.53
2023-05-14T08:24:51.525Z,19.94
2023-05-14T08:27:19.448Z,20.13
2023-05-14T08:29:48.742Z,20.24
2023-05-14T08:32:23.431Z,20.02
2023-05-14T08:34:52.391Z,20.02
2023-05-14T08:37:20.480Z,19.69
2023-05-14T08:39:48.478Z,20.23
2023-05-14T08:42:17.007Z,20.37
2023-05-14T08:44:51.005Z,20.62
2023-05-14T08:47:19.801Z,20.68
2023-05-14T08:49:49.628Z,20.46
2023-05-14T08:52:18.814Z,20.32
2023-05-14T08:54:48.040Z,20.19
2023-05-14T08:57:16.500Z,20.37
2023-05-14T08:59:44.393Z,20.69
2023-05-14T09:02:16.943Z,21.15
2023-05-14T09:04:45.277Z,21.17
2023-05-14T09:07:13.388Z,21.62
2023-05-14T09:09:42.089Z,21.47
2023-05-14T09:12:10.721Z,21.57
2023-05-14T09:14:38.738Z,21.92
2023-05-14T09:17:06.673Z,22.07
2023-05-14T09:19:36.110Z,21.66
2023-05-14T09:22:09.685Z,20.94
2023-05-14T09:24:38.861Z,20.71
2023-05-14T09:27:07.835Z,20.81
2023-05-14T09:29:39.253Z,21.02
2023-05-14T09:34:39.922Z,21.98
2023-05-14T09:37:09.640Z,21.48
2023-05-14T09:39:38.666Z,21.67
2023-05-14T09:42:07.303Z,21.75
2023-05-14T09:44:36.464Z,21.89
2023-05-14T09:47:04.856Z,21.86
2023-05-14T09:49:32.779Z,22.47
2023-05-14T09:52:03.821Z,22.78
2023-05-14T09:54:33.562Z,22.43
2023-05-14T09:57:01.596Z,22.79
2023-05-14T09:59:29.867Z,22.87
2023-05-14T10:01:59.292Z,23.33
2023-05-14T10:04:27.611Z,23.43
2023-05-14T10:06:56.731Z,22.78
2023-05-14T10:09:28.596Z,23.45
2023-05-14T10:12:00.554Z,23.61
2023-05-14T10:14:33.605Z,23.76
2023-05-14T10:17:03.030Z,23.32
2023-05-14T10:19:35.224Z,22.88
2023-05-14T10:22:06.038Z,23.37
2023-05-14T10:24:36.101Z,23.97
2023-05-14T10:27:04.495Z,23.48
2023-05-14T10:29:36.526Z,24.24
2023-05-14T10:32:07.189Z,24.35
2023-05-14T10:34:38.728Z,23.79
2023-05-14T10:37:09.304Z,23.19
2023-05-14T10:39:48.824Z,22.21
2023-05-14T10:42:19.359Z,22.55
2023-05-14T10:44:53.136Z,23.51
2023-05-14T10:47:23.213Z,22.12
2023-05-14T10:49:53.183Z,22.32
2023-05-14T10:52:21.411Z,23.03
2023-05-14T10:54:54.754Z,23.90
2023-05-14T10:57:23.887Z,23.29
2023-05-14T10:59:55.193Z,22.20
2023-05-14T11:02:25.436Z,22.82
2023-05-14T11:04:59.678Z,22.26
2023-05-14T11:07:32.295Z,22.64
2023-05-14T11:10:06.388Z,23.05
2023-05-14T11:12:35.078Z,23.87
2023-05-14T11:15:05.852Z,24.38
2023-05-14T11:17:34.048Z,24.06
2023-05-14T11:20:02.110Z,23.33
2023-05-14T11:22:30.408Z,22.53
2023-05-14T11:24:58.608Z,22.50
2023-05-14T11:27:27.979Z,23.38
2023-05-14T11:30:01.038Z,23.77
2023-05-14T11:32:29.058Z,24.40
2023-05-14T11:34:57.000Z,23.81
2023-05-14T11:37:25.017Z,23.71
2023-05-14T11:39:54.636Z,23.70
2023-05-14T11:42:23.817Z,23.57
2023-05-14T11:44:54.056Z,24.95
2023-05-14T11:47:22.829Z,25.16
2023-05-14T11:49:50.871Z,23.32
2023-05-14T11:52:22.021Z,24.51
2023-05-14T11:54:51.012Z,24.41
2023-05-14T11:57:20.959Z,24.89
2023-05-14T11:59:49.709Z,24.91
2023-05-14T12:02:19.885Z,24.59
2023-05-14T12:04:52.253Z,24.22
2023-05-14T12:07:20.675Z,24.47
2023-05-14T12:09:49.946Z,24.76
2023-05-14T12:12:19.911Z,24.68
2023-05-14T12:14:48.134Z,24.81
2023-05-14T12:17:18.981Z,25.14
2023-05-14T12:19:49.286Z,25.14
2023-05-14T12:22:19.875Z,25.12
2023-05-14T12:24:54.562Z,25.31
2023-05-14T12:27:23.616Z,25.69
2023-05-14T12:29:53.494Z,25.87
2023-05-14T12:32:22.806Z,25.64
2023-05-14T12:34:50.719Z,25.65
2023-05-14T12:37:19.336Z,25.61
2023-05-14T12:39:47.249Z,25.39
2023-05-14T12:42:16.070Z,25.38
2023-05-14T12:44:43.975Z,25.24
2023-05-14T12:47:11.934Z,25.13
2023-05-14T12:49:41.312Z,25.06
2023-05-14T12:54:45.146Z,25.21
2023-05-14T12:57:13.131Z,25.26
2023-05-14T12:59:41.115Z,25.21
2023-05-14T13:02:09.417Z,25.09
2023-05-14T13:04:37.418Z,24.98
2023-05-14T13:07:08.910Z,24.94
2023-05-14T13:09:36.800Z,24.75
2023-05-14T13:12:05.148Z,24.41
2023-05-14T13:14:33.026Z,24.27
2023-05-14T13:17:01.003Z,24.39
2023-05-14T13:19:28.958Z,23.75
2023-05-14T13:21:56.859Z,23.91
2023-05-14T13:24:26.253Z,24.38
2023-05-14T13:26:54.199Z,24.49
2023-05-14T13:29:22.118Z,23.93
2023-05-14T13:31:49.994Z,24.02
2023-05-14T13:34:17.908Z,24.08
2023-05-14T13:36:47.190Z,24.47
2023-05-14T13:39:15.623Z,24.54
2023-05-14T13:41:45.551Z,25.25
2023-05-14T13:44:13.452Z,25.36
2023-05-14T13:46:41.424Z,25.65
2023-05-14T13:49:09.424Z,25.85
2023-05-14T13:51:37.363Z,25.94
2023-05-14T13:54:05.298Z,25.58
2023-05-14T13:56:33.276Z,25.30
2023-05-14T13:59:03.535Z,24.89
2023-05-14T14:01:31.896Z,24.86
2023-05-14T14:04:00.321Z,24.90
2023-05-14T14:06:28.600Z,24.98
2023-05-14T14:08:56.482Z,24.47
2023-05-14T14:11:24.447Z,24.58
2023-05-14T14:13:52.373Z,24.47
2023-05-14T14:16:21.742Z,24.33
2023-05-14T14:18:49.714Z,24.07
2023-05-14T14:21:18.568Z,24.04
2023-05-14T14:23:47.337Z,23.94
2023-05-14T14:26:15.896Z,24.02
2023-05-14T14:28:43.885Z,23.95
2023-05-14T14:31:11.874Z,23.67
2023-05-14T14:33:41.176Z,23.03
2023-05-14T14:36:09.380Z,23.33
2023-05-14T14:38:37.555Z,23.57
2023-05-14T14:41:07.168Z,23.51
2023-05-14T14:43:35.180Z,23.28
2023-05-14T14:46:03.158Z,23.27
2023-05-14T14:48:34.240Z,23.29
2023-05-14T14:51:03.555Z,23.29
2023-05-14T14:53:31.878Z,23.39
2023-05-14T14:56:00.619Z,23.36
2023-05-14T14:58:28.853Z,23.19
2023-05-14T15:00:57.996Z,23.26
2023-05-14T15:03:26.697Z,23.24
2023-05-14T15:05:54.940Z,23.35
2023-05-14T15:08:26.954Z,23.19
2023-05-14T15:10:55.063Z,22.96
2023-05-14T15:13:23.276Z,22.99
2023-05-14T15:15:51.842Z,23.12
2023-05-14T15:18:19.825Z,23.24
2023-05-14T15:20:47.773Z,23.35
2023-05-14T15:23:15.691Z,23.32
2023-05-14T15:25:45.020Z,23.26
2023-05-14T15:28:13.009Z,23.14
2023-05-14T15:30:40.896Z,22.73
2023-05-14T15:33:09.280Z,22.57
2023-05-14T15:35:37.607Z,21.95
2023-05-14T15:38:05.579Z,22.39
2023-05-14T15:40:35.024Z,22.66
2023-05-14T15:43:04.767Z,22.67
2023-05-14T15:45:32.824Z,22.40
2023-05-14T15:48:01.042Z,22.76
2023-05-14T15:50:28.991Z,22.71
2023-05-14T15:52:57.061Z,22.71
2023-05-14T15:55:24.997Z,23.03
2023-05-14T15:57:52.979Z,23.54
2023-05-14T16:00:23.007Z,23.67
2023-05-14T16:02:51.372Z,23.54
2023-05-14T16:05:19.419Z,23.76
2023-05-14T16:07:47.547Z,24.37
2023-05-14T16:10:15.471Z,24.98
2023-05-14T16:12:43.368Z,25.18
2023-05-14T16:15:12.234Z,25.19
2023-05-14T16:17:41.880Z,24.47
2023-05-14T16:20:10.801Z,24.79
2023-05-14T16:22:38.899Z,24.98
2023-05-14T16:25:07.366Z,25.76
2023-05-14T16:27:35.866Z,26.25
2023-05-14T16:30:04.503Z,26.54
2023-05-14T16:32:32.462Z,26.04
2023-05-14T16:35:02.776Z,26.26
2023-05-14T16:37:30.915Z,26.31
2023-05-14T16:39:58.842Z,26.67
2023-05-14T16:42:26.796Z,25.79
2023-05-14T16:44:54.716Z,24.98
2023-05-14T16:47:22.695Z,23.44
2023-05-14T16:49:50.651Z,22.80
2023-05-14T16:52:20.006Z,22.84
2023-05-14T16:54:47.955Z,22.98
2023-05-14T16:57:15.870Z,23.20
2023-05-14T16:59:43.887Z,22.89
2023-05-14T17:02:11.840Z,22.62
2023-05-14T17:04:42.153Z,22.18
2023-05-14T17:07:10.271Z,22.30
2023-05-14T17:09:39.560Z,22.21
2023-05-14T17:12:08.335Z,22.22
2023-05-14T17:14:36.289Z,22.01
2023-05-14T17:17:04.702Z,21.90
2023-05-14T17:19:32.652Z,21.34
2023-05-14T17:22:00.749Z,21.14
2023-05-14T17:24:28.744Z,20.81
2023-05-14T17:26:58.056Z,21.48
2023-05-14T17:29:26.301Z,22.11
2023-05-14T17:31:54.718Z,22.32
2023-05-14T17:34:22.954Z,22.59
2023-05-14T17:36:50.981Z,22.96
2023-05-14T17:39:18.875Z,22.42
2023-05-14T17:41:46.800Z,22.30
2023-05-14T17:44:16.103Z,21.60
2023-05-14T17:46:44.917Z,21.77
2023-05-14T17:49:13.013Z,21.26
2023-05-14T17:51:40.950Z,21.32
2023-05-14T17:54:09.014Z,21.60
2023-05-14T17:56:36.980Z,21.44
2023-05-14T17:59:04.940Z,21.37
2023-05-14T18:01:34.313Z,21.15
2023-05-14T18:04:02.321Z,21.17
2023-05-14T18:06:30.333Z,20.94
2023-05-14T18:08:58.212Z,20.69
2023-05-14T18:11:26.302Z,20.53
2023-05-14T18:13:54.174Z,20.90
2023-05-14T18:16:22.113Z,20.49
2023-05-14T18:18:51.558Z,19.91
2023-05-14T18:21:19.544Z,19.55
2023-05-14T18:23:47.416Z,19.33
2023-05-14T18:26:15.356Z,19.72
2023-05-14T18:28:43.253Z,20.22
2023-05-14T18:31:11.247Z,20.42
2023-05-14T18:33:39.862Z,20.67
2023-05-14T18:36:09.222Z,20.77
2023-05-14T18:38:37.148Z,20.80
2023-05-14T18:41:05.285Z,20.33
2023-05-14T18:43:33.180Z,19.47
2023-05-14T18:46:01.179Z,18.81
2023-05-14T18:48:29.181Z,18.87
2023-05-14T18:50:57.080Z,18.99
2023-05-14T18:53:27.299Z,19.02
2023-05-14T18:55:55.243Z,19.60
2023-05-14T18:58:25.844Z,19.89
2023-05-14T19:00:53.759Z,19.60
2023-05-14T19:03:21.759Z,19.72
2023-05-14T19:05:50.695Z,18.86
2023-05-14T19:08:18.755Z,18.34
2023-05-14T19:10:48.555Z,18.58
2023-05-14T19:13:17.021Z,18.32
2023-05-14T19:15:44.962Z,18.96
2023-05-14T19:18:13.927Z,18.70
2023-05-14T19:20:42.559Z,17.22
2023-05-14T19:23:10.443Z,17.21
2023-05-14T19:25:38.339Z,17.69
2023-05-14T19:28:07.820Z,18.27
2023-05-14T19:30:35.763Z,18.47
2023-05-14T19:33:04.542Z,18.44
2023-05-14T19:35:32.668Z,18.55
2023-05-14T19:38:00.562Z,18.57
2023-05-14T19:40:30.637Z,18.61
2023-05-14T19:43:01.509Z,18.19
2023-05-14T19:45:31.192Z,18.39
2023-05-14T19:47:59.297Z,18.37
2023-05-14T19:50:27.307Z,18.19
2023-05-14T19:52:56.717Z,17.63
2023-05-14T19:55:24.775Z,17.34
2023-05-14T19:57:52.894Z,17.61
2023-05-14T20:00:20.820Z,17.53
2023-05-14T20:02:50.477Z,17.55
2023-05-14T20:05:18.678Z,16.63
2023-05-14T20:07:47.145Z,16.84
2023-05-14T20:10:15.368Z,16.76
2023-05-14T20:12:43.253Z,17.03
2023-05-14T20:15:11.857Z,16.98
2023-05-14T20:17:39.927Z,16.73
2023-05-14T20:20:10.518Z,16.72
2023-05-14T20:22:40.050Z,17.02
2023-05-14T20:25:09.039Z,17.26
2023-05-14T20:27:36.962Z,17.45
2023-05-14T20:30:05.668Z,17.50
2023-05-14T20:32:33.619Z,17.56
2023-05-14T20:35:02.305Z,17.46
2023-05-14T20:37:32.612Z,17.40
2023-05-14T20:40:01.150Z,17.44
2023-05-14T20:42:29.706Z,17.32
2023-05-14T20:44:57.617Z,17.07
2023-05-14T20:47:26.829Z,17.00
2023-05-14T20:49:54.787Z,17.00
2023-05-14T20:52:22.713Z,16.98
2023-05-14T20:54:52.180Z,16.80
2023-05-14T20:57:20.485Z,16.75
2023-05-14T20:59:49.004Z,16.73
2023-05-14T21:02:17.101Z,16.64
2023-05-14T21:04:45.283Z,16.70
2023-05-14T21:07:13.283Z,16.73
2023-05-14T21:09:41.214Z,16.72
2023-05-14T21:12:11.286Z,16.65
2023-05-14T21:14:57.830Z,16.52
2023-05-14T21:17:25.944Z,16.26
2023-05-14T21:19:53.866Z,16.08
2023-05-14T21:22:22.715Z,15.84
2023-05-14T21:24:51.151Z,15.71
2023-05-14T21:27:20.540Z,15.41
2023-05-14T21:29:48.417Z,15.09
2023-05-14T21:32:16.303Z,15.30
2023-05-14T21:34:44.614Z,15.22
2023-05-14T21:37:12.571Z,15.41
2023-05-14T21:39:40.477Z,15.72
2023-05-14T21:42:09.184Z,15.86
2023-05-14T21:44:38.468Z,16.00
2023-05-14T21:47:06.926Z,16.02
2023-05-14T21:49:35.536Z,16.03
2023-05-14T21:52:03.622Z,16.05
2023-05-14T21:54:31.569Z,15.96
2023-05-14T21:56:59.606Z,15.84
2023-05-14T21:59:27.486Z,15.70
2023-05-14T22:02:06.712Z,15.72
2023-05-14T22:04:35.617Z,15.76
2023-05-14T22:07:03.631Z,15.81
2023-05-14T22:09:31.591Z,15.82
2023-05-14T22:11:59.545Z,15.80
2023-05-14T22:14:27.661Z,15.76
2023-05-14T22:16:57.030Z,15.67
2023-05-14T22:19:25.784Z,15.61
2023-05-14T22:21:53.686Z,15.64
2023-05-14T22:24:21.595Z,15.67
2023-05-14T22:26:49.469Z,15.62
2023-05-14T22:29:17.387Z,15.39
2023-05-14T22:31:45.376Z,15.30
2023-05-14T22:34:14.745Z,15.01
2023-05-14T22:36:42.706Z,14.87
2023-05-14T22:39:12.143Z,14.79
2023-05-14T22:41:41.277Z,14.83
2023-05-14T22:44:09.188Z,14.68
2023-05-14T22:46:37.121Z,14.47
2023-05-14T22:49:05.069Z,14.01
2023-05-14T22:51:34.343Z,14.19
2023-05-14T22:54:02.250Z,14.33
2023-05-14T22:56:30.190Z,14.60
2023-05-14T22:59:00.277Z,14.68
2023-05-14T23:01:28.462Z,14.80
2023-05-14T23:03:56.581Z,14.80
2023-05-14T23:06:25.590Z,14.81
2023-05-14T23:08:54.869Z,14.78
2023-05-14T23:11:22.919Z,14.73
2023-05-14T23:13:51.319Z,14.49
2023-05-14T23:16:19.348Z,14.53
2023-05-14T23:18:47.427Z,14.50
2023-05-14T23:21:15.521Z,14.57
2023-05-14T23:23:43.444Z,14.41
2023-05-14T23:26:12.734Z,14.50
2023-05-14T23:28:41.159Z,14.26
2023-05-14T23:31:09.118Z,14.28
2023-05-14T23:33:37.054Z,14.26
2023-05-14T23:36:05.388Z,14.16
2023-05-14T23:38:33.280Z,14.13
2023-05-14T23:41:01.183Z,14.25
2023-05-14T23:43:30.603Z,14.34
2023-05-14T23:45:58.542Z,14.31
2023-05-14T23:48:26.701Z,14.16
2023-05-14T23:50:54.592Z,13.98
2023-05-14T23:53:22.483Z,13.86
2023-05-14T23:55:50.418Z,13.78
2023-05-14T23:58:18.407Z,13.65
